DEBNL LSZR-EDKB
Flight info
| Callsign | DEBNL |
|---|---|
| Flight time | 1h 22m |
| Altitude | 8500 |
| Route | SUL DCT EDRI DCT FHH |
| Aircraft | BT36/L-SBDFGRY/S |
Departure
| Time | 2026-04-29 12:46 |
|---|---|
| Airport | Sankt Gallen Altenrhein Airport (LSZR) |
Arrival
| Time | 2026-04-29 14:08 |
|---|---|
| Airport | Bonn-Hangelar Airfield (EDKB) |
| Time | Latitude | Longitude | Altitude | Speed | Heading |
|---|---|---|---|---|---|
| 2026-04-29 12:29 | 47.48748 | 9.55428 | 1309 ft | 0 kts | 187° |
| 2026-04-29 12:38 | 47.48743 | 9.55439 | 1309 ft | 4 kts | 68° |
| 2026-04-29 12:38 | 47.48732 | 9.55492 | 1309 ft | 9 kts | 141° |
| 2026-04-29 12:39 | 47.48708 | 9.55614 | 1309 ft | 16 kts | 97° |
| 2026-04-29 12:39 | 47.48686 | 9.55815 | 1309 ft | 24 kts | 99° |
| 2026-04-29 12:39 | 47.48663 | 9.56024 | 1309 ft | 20 kts | 99° |
| 2026-04-29 12:39 | 47.48641 | 9.56243 | 1309 ft | 23 kts | 98° |
| 2026-04-29 12:40 | 47.48613 | 9.56487 | 1309 ft | 26 kts | 98° |
| 2026-04-29 12:40 | 47.48588 | 9.56748 | 1309 ft | 19 kts | 98° |
| 2026-04-29 12:40 | 47.48567 | 9.56961 | 1309 ft | 22 kts | 96° |
| 2026-04-29 12:40 | 47.48511 | 9.57080 | 1309 ft | 9 kts | 185° |
| 2026-04-29 12:41 | 47.48497 | 9.57079 | 1309 ft | 0 kts | 184° |
| 2026-04-29 12:45 | 47.48463 | 9.57076 | 1310 ft | 11 kts | 186° |
| 2026-04-29 12:45 | 47.48404 | 9.57026 | 1311 ft | 10 kts | 276° |
| 2026-04-29 12:45 | 47.48406 | 9.57012 | 1311 ft | 0 kts | 276° |
| 2026-04-29 12:45 | 47.48431 | 9.56760 | 1308 ft | 70 kts | 278° |
| 2026-04-29 12:46 | 47.48503 | 9.55832 | 1641 ft | 99 kts | 274° |
| 2026-04-29 12:46 | 47.48534 | 9.54756 | 2170 ft | 114 kts | 276° |
| 2026-04-29 12:46 | 47.48590 | 9.53466 | 2263 ft | 134 kts | 277° |
| 2026-04-29 12:46 | 47.48658 | 9.52039 | 2310 ft | 144 kts | 275° |
| 2026-04-29 12:47 | 47.48802 | 9.50546 | 2297 ft | 149 kts | 296° |
| 2026-04-29 12:47 | 47.49527 | 9.49561 | 2288 ft | 142 kts | 349° |
| 2026-04-29 12:47 | 47.50502 | 9.49415 | 2288 ft | 142 kts | 2° |
| 2026-04-29 12:47 | 47.51487 | 9.49380 | 2401 ft | 139 kts | 4° |
| 2026-04-29 12:48 | 47.52438 | 9.49257 | 2547 ft | 141 kts | 343° |
| 2026-04-29 12:48 | 47.53102 | 9.48195 | 2696 ft | 150 kts | 299° |
| 2026-04-29 12:48 | 47.53500 | 9.46774 | 2824 ft | 150 kts | 294° |
| 2026-04-29 12:48 | 47.53849 | 9.45259 | 2954 ft | 162 kts | 292° |
| 2026-04-29 12:49 | 47.54210 | 9.43608 | 3107 ft | 170 kts | 291° |
| 2026-04-29 12:49 | 47.54549 | 9.41899 | 3246 ft | 177 kts | 282° |
| 2026-04-29 12:49 | 47.54316 | 9.40137 | 3361 ft | 182 kts | 242° |
| 2026-04-29 12:49 | 47.53835 | 9.38418 | 3434 ft | 179 kts | 250° |
| 2026-04-29 12:50 | 47.53421 | 9.36690 | 3456 ft | 178 kts | 252° |
| 2026-04-29 12:50 | 47.53021 | 9.34953 | 3470 ft | 179 kts | 252° |
| 2026-04-29 12:50 | 47.52675 | 9.33180 | 3466 ft | 179 kts | 265° |
| 2026-04-29 12:50 | 47.52926 | 9.31419 | 3467 ft | 175 kts | 295° |
| 2026-04-29 12:51 | 47.53423 | 9.29794 | 3615 ft | 172 kts | 299° |
| 2026-04-29 12:51 | 47.53961 | 9.28216 | 3829 ft | 172 kts | 301° |
| 2026-04-29 12:51 | 47.54511 | 9.26645 | 4035 ft | 173 kts | 301° |
| 2026-04-29 12:51 | 47.55066 | 9.25065 | 4235 ft | 173 kts | 302° |
| 2026-04-29 12:52 | 47.55614 | 9.23494 | 4404 ft | 174 kts | 302° |
| 2026-04-29 12:52 | 47.56165 | 9.21900 | 4584 ft | 174 kts | 307° |
| 2026-04-29 12:52 | 47.57025 | 9.20772 | 4736 ft | 162 kts | 340° |
| 2026-04-29 12:52 | 47.58061 | 9.20121 | 4921 ft | 162 kts | 347° |
| 2026-04-29 12:53 | 47.59113 | 9.19519 | 5091 ft | 163 kts | 345° |
| 2026-04-29 12:53 | 47.60162 | 9.18879 | 5265 ft | 164 kts | 343° |
| 2026-04-29 12:53 | 47.61209 | 9.18202 | 5429 ft | 165 kts | 344° |
| 2026-04-29 12:53 | 47.62260 | 9.17506 | 5600 ft | 166 kts | 343° |
| 2026-04-29 12:54 | 47.63317 | 9.16786 | 5747 ft | 169 kts | 343° |
| 2026-04-29 12:54 | 47.64399 | 9.16050 | 5894 ft | 172 kts | 341° |
| 2026-04-29 12:54 | 47.65511 | 9.15288 | 6030 ft | 179 kts | 341° |
| 2026-04-29 12:54 | 47.66649 | 9.14528 | 6165 ft | 180 kts | 341° |
| 2026-04-29 12:55 | 47.67783 | 9.13747 | 6287 ft | 180 kts | 339° |
| 2026-04-29 12:55 | 47.68913 | 9.12950 | 6402 ft | 180 kts | 339° |
| 2026-04-29 12:55 | 47.70053 | 9.12161 | 6532 ft | 181 kts | 340° |
| 2026-04-29 12:55 | 47.71178 | 9.11374 | 6649 ft | 181 kts | 340° |
| 2026-04-29 12:56 | 47.72318 | 9.10583 | 6752 ft | 181 kts | 343° |
| 2026-04-29 12:56 | 47.73462 | 9.09795 | 6873 ft | 182 kts | 341° |
| 2026-04-29 12:56 | 47.74608 | 9.08997 | 7002 ft | 182 kts | 342° |
| 2026-04-29 12:56 | 47.75759 | 9.08211 | 7128 ft | 182 kts | 340° |
| 2026-04-29 12:57 | 47.76911 | 9.07419 | 7262 ft | 183 kts | 340° |
| 2026-04-29 12:57 | 47.78065 | 9.06615 | 7397 ft | 183 kts | 343° |
| 2026-04-29 12:57 | 47.79222 | 9.05831 | 7516 ft | 182 kts | 341° |
| 2026-04-29 12:57 | 47.80373 | 9.05033 | 7633 ft | 182 kts | 341° |
| 2026-04-29 12:58 | 47.81520 | 9.04222 | 7750 ft | 183 kts | 342° |
| 2026-04-29 12:58 | 47.82673 | 9.03420 | 7866 ft | 182 kts | 339° |
| 2026-04-29 12:58 | 47.83820 | 9.02618 | 7991 ft | 182 kts | 339° |
| 2026-04-29 12:58 | 47.84972 | 9.01811 | 8118 ft | 182 kts | 339° |
| 2026-04-29 12:59 | 47.86125 | 9.01011 | 8253 ft | 183 kts | 339° |
| 2026-04-29 12:59 | 47.87285 | 9.00212 | 8380 ft | 184 kts | 340° |
| 2026-04-29 12:59 | 47.88443 | 8.99402 | 8513 ft | 184 kts | 340° |
| 2026-04-29 12:59 | 47.89601 | 8.98608 | 8583 ft | 188 kts | 342° |
| 2026-04-29 13:00 | 47.90800 | 8.97784 | 8593 ft | 191 kts | 343° |
| 2026-04-29 13:00 | 47.92002 | 8.96949 | 8596 ft | 189 kts | 342° |
| 2026-04-29 13:00 | 47.93175 | 8.96117 | 8602 ft | 184 kts | 340° |
| 2026-04-29 13:00 | 47.94306 | 8.95324 | 8602 ft | 179 kts | 339° |
| 2026-04-29 13:01 | 47.95431 | 8.94534 | 8593 ft | 179 kts | 342° |
| 2026-04-29 13:01 | 47.96559 | 8.93753 | 8606 ft | 179 kts | 342° |
| 2026-04-29 13:01 | 47.97694 | 8.92957 | 8630 ft | 181 kts | 342° |
| 2026-04-29 13:01 | 47.98837 | 8.92163 | 8624 ft | 182 kts | 342° |
| 2026-04-29 13:02 | 47.99986 | 8.91370 | 8616 ft | 181 kts | 340° |
| 2026-04-29 13:02 | 48.01136 | 8.90576 | 8612 ft | 182 kts | 340° |
| 2026-04-29 13:02 | 48.02282 | 8.89794 | 8598 ft | 181 kts | 339° |
| 2026-04-29 13:02 | 48.03415 | 8.88993 | 8597 ft | 180 kts | 341° |
| 2026-04-29 13:03 | 48.04550 | 8.88189 | 8606 ft | 180 kts | 340° |
| 2026-04-29 13:03 | 48.05689 | 8.87399 | 8596 ft | 180 kts | 340° |
| 2026-04-29 13:03 | 48.06819 | 8.86594 | 8610 ft | 180 kts | 341° |
| 2026-04-29 13:03 | 48.07946 | 8.85791 | 8585 ft | 179 kts | 342° |
| 2026-04-29 13:04 | 48.09069 | 8.85005 | 8592 ft | 178 kts | 340° |
| 2026-04-29 13:04 | 48.10189 | 8.84220 | 8594 ft | 177 kts | 341° |
| 2026-04-29 13:04 | 48.11290 | 8.83455 | 8598 ft | 176 kts | 340° |
| 2026-04-29 13:04 | 48.12411 | 8.82674 | 8628 ft | 178 kts | 342° |
| 2026-04-29 13:05 | 48.13536 | 8.81886 | 8615 ft | 179 kts | 342° |
| 2026-04-29 13:05 | 48.14658 | 8.81078 | 8620 ft | 179 kts | 341° |
| 2026-04-29 13:05 | 48.15774 | 8.80267 | 8619 ft | 178 kts | 341° |
| 2026-04-29 13:05 | 48.16895 | 8.79480 | 8601 ft | 177 kts | 342° |
| 2026-04-29 13:06 | 48.18006 | 8.78695 | 8605 ft | 177 kts | 342° |
| 2026-04-29 13:06 | 48.19119 | 8.77914 | 8602 ft | 177 kts | 341° |
| 2026-04-29 13:06 | 48.20231 | 8.77134 | 8607 ft | 176 kts | 340° |
| 2026-04-29 13:06 | 48.21348 | 8.76358 | 8620 ft | 177 kts | 342° |
| 2026-04-29 13:07 | 48.22469 | 8.75582 | 8629 ft | 178 kts | 340° |
| 2026-04-29 13:07 | 48.23583 | 8.74806 | 8629 ft | 179 kts | 342° |
| 2026-04-29 13:07 | 48.24705 | 8.74009 | 8606 ft | 178 kts | 342° |
| 2026-04-29 13:07 | 48.25826 | 8.73218 | 8606 ft | 177 kts | 339° |
| 2026-04-29 13:08 | 48.26938 | 8.72426 | 8616 ft | 177 kts | 339° |
| 2026-04-29 13:08 | 48.28051 | 8.71624 | 8614 ft | 177 kts | 339° |
| 2026-04-29 13:08 | 48.29168 | 8.70830 | 8630 ft | 178 kts | 340° |
| 2026-04-29 13:08 | 48.30292 | 8.70046 | 8618 ft | 178 kts | 340° |
| 2026-04-29 13:09 | 48.31413 | 8.69247 | 8610 ft | 178 kts | 339° |
| 2026-04-29 13:09 | 48.32511 | 8.68448 | 8615 ft | 177 kts | 341° |
| 2026-04-29 13:09 | 48.33637 | 8.67651 | 8607 ft | 176 kts | 342° |
| 2026-04-29 13:09 | 48.34749 | 8.66874 | 8629 ft | 177 kts | 339° |
| 2026-04-29 13:10 | 48.35853 | 8.66094 | 8632 ft | 178 kts | 341° |
| 2026-04-29 13:10 | 48.36976 | 8.65307 | 8624 ft | 178 kts | 339° |
| 2026-04-29 13:10 | 48.38103 | 8.64565 | 8629 ft | 176 kts | 346° |
| 2026-04-29 13:10 | 48.39280 | 8.64122 | 8631 ft | 173 kts | 354° |
| 2026-04-29 13:11 | 48.40465 | 8.63764 | 8641 ft | 174 kts | 355° |
| 2026-04-29 13:11 | 48.41655 | 8.63378 | 8644 ft | 176 kts | 355° |
| 2026-04-29 13:11 | 48.42850 | 8.62985 | 8626 ft | 176 kts | 355° |
| 2026-04-29 13:11 | 48.43639 | 8.62720 | 8621 ft | 175 kts | 353° |
| 2026-04-29 13:12 | 48.44835 | 8.62330 | 8629 ft | 176 kts | 353° |
| 2026-04-29 13:12 | 48.46035 | 8.61934 | 8646 ft | 176 kts | 355° |
| 2026-04-29 13:12 | 48.47236 | 8.61531 | 8633 ft | 176 kts | 354° |
| 2026-04-29 13:12 | 48.48430 | 8.61140 | 8629 ft | 176 kts | 355° |
| 2026-04-29 13:13 | 48.49629 | 8.60746 | 8622 ft | 176 kts | 353° |
| 2026-04-29 13:13 | 48.50821 | 8.60385 | 8627 ft | 174 kts | 353° |
| 2026-04-29 13:13 | 48.52012 | 8.60003 | 8628 ft | 174 kts | 354° |
| 2026-04-29 13:13 | 48.53196 | 8.59602 | 8634 ft | 175 kts | 353° |
| 2026-04-29 13:14 | 48.54370 | 8.59214 | 8639 ft | 175 kts | 355° |
| 2026-04-29 13:14 | 48.55562 | 8.58837 | 8632 ft | 175 kts | 355° |
| 2026-04-29 13:14 | 48.56753 | 8.58444 | 8642 ft | 175 kts | 353° |
| 2026-04-29 13:14 | 48.57942 | 8.58047 | 8624 ft | 174 kts | 355° |
| 2026-04-29 13:15 | 48.59123 | 8.57646 | 8626 ft | 174 kts | 352° |
| 2026-04-29 13:15 | 48.60307 | 8.57254 | 8642 ft | 175 kts | 355° |
| 2026-04-29 13:15 | 48.61493 | 8.56838 | 8642 ft | 175 kts | 351° |
| 2026-04-29 13:15 | 48.62681 | 8.56447 | 8641 ft | 174 kts | 353° |
| 2026-04-29 13:16 | 48.63871 | 8.56071 | 8640 ft | 174 kts | 352° |
| 2026-04-29 13:16 | 48.65057 | 8.55677 | 8647 ft | 174 kts | 354° |
| 2026-04-29 13:16 | 48.66247 | 8.55293 | 8645 ft | 175 kts | 353° |
| 2026-04-29 13:16 | 48.67437 | 8.54910 | 8649 ft | 175 kts | 355° |
| 2026-04-29 13:17 | 48.68632 | 8.54524 | 8649 ft | 176 kts | 356° |
| 2026-04-29 13:17 | 48.69826 | 8.54136 | 8639 ft | 175 kts | 355° |
| 2026-04-29 13:17 | 48.71016 | 8.53745 | 8638 ft | 174 kts | 354° |
| 2026-04-29 13:17 | 48.72210 | 8.53359 | 8644 ft | 176 kts | 354° |
| 2026-04-29 13:18 | 48.73404 | 8.52959 | 8647 ft | 176 kts | 352° |
| 2026-04-29 13:18 | 48.74587 | 8.52567 | 8647 ft | 176 kts | 355° |
| 2026-04-29 13:18 | 48.75782 | 8.52174 | 8643 ft | 176 kts | 352° |
| 2026-04-29 13:18 | 48.76981 | 8.51767 | 8635 ft | 176 kts | 355° |
| 2026-04-29 13:19 | 48.78177 | 8.51379 | 8641 ft | 176 kts | 352° |
| 2026-04-29 13:19 | 48.79374 | 8.50993 | 8643 ft | 175 kts | 355° |
| 2026-04-29 13:19 | 48.80567 | 8.50616 | 8655 ft | 176 kts | 352° |
| 2026-04-29 13:19 | 48.81764 | 8.50219 | 8649 ft | 176 kts | 351° |
| 2026-04-29 13:20 | 48.82961 | 8.49799 | 8651 ft | 176 kts | 351° |
| 2026-04-29 13:20 | 48.84155 | 8.49390 | 8649 ft | 176 kts | 354° |
| 2026-04-29 13:20 | 48.85351 | 8.48999 | 8644 ft | 176 kts | 354° |
| 2026-04-29 13:20 | 48.86549 | 8.48617 | 8654 ft | 176 kts | 356° |
| 2026-04-29 13:21 | 48.87743 | 8.48229 | 8648 ft | 175 kts | 352° |
| 2026-04-29 13:21 | 48.88932 | 8.47830 | 8649 ft | 175 kts | 354° |
| 2026-04-29 13:21 | 48.90131 | 8.47420 | 8672 ft | 177 kts | 351° |
| 2026-04-29 13:21 | 48.91337 | 8.47006 | 8669 ft | 178 kts | 355° |
| 2026-04-29 13:22 | 48.92540 | 8.46609 | 8648 ft | 176 kts | 355° |
| 2026-04-29 13:22 | 48.93723 | 8.46233 | 8651 ft | 176 kts | 355° |
| 2026-04-29 13:22 | 48.94936 | 8.45844 | 8665 ft | 177 kts | 354° |
| 2026-04-29 13:22 | 48.96140 | 8.45443 | 8666 ft | 178 kts | 352° |
| 2026-04-29 13:23 | 48.97325 | 8.45047 | 8657 ft | 176 kts | 355° |
| 2026-04-29 13:23 | 48.98525 | 8.44643 | 8660 ft | 176 kts | 354° |
| 2026-04-29 13:23 | 48.99723 | 8.44237 | 8648 ft | 176 kts | 354° |
| 2026-04-29 13:23 | 49.00916 | 8.43838 | 8658 ft | 176 kts | 354° |
| 2026-04-29 13:24 | 49.02108 | 8.43429 | 8649 ft | 175 kts | 352° |
| 2026-04-29 13:24 | 49.03297 | 8.43040 | 8651 ft | 175 kts | 353° |
| 2026-04-29 13:24 | 49.04486 | 8.42650 | 8649 ft | 174 kts | 352° |
| 2026-04-29 13:24 | 49.05668 | 8.42256 | 8653 ft | 173 kts | 354° |
| 2026-04-29 13:25 | 49.06845 | 8.41870 | 8650 ft | 173 kts | 355° |
| 2026-04-29 13:25 | 49.09197 | 8.41101 | 8651 ft | 173 kts | 353° |
| 2026-04-29 13:25 | 49.10377 | 8.40713 | 8663 ft | 174 kts | 352° |
| 2026-04-29 13:26 | 49.11557 | 8.40313 | 8654 ft | 173 kts | 355° |
| 2026-04-29 13:26 | 49.12735 | 8.39908 | 8665 ft | 173 kts | 354° |
| 2026-04-29 13:26 | 49.13906 | 8.39427 | 8669 ft | 177 kts | 343° |
| 2026-04-29 13:26 | 49.14939 | 8.38341 | 8677 ft | 185 kts | 320° |
| 2026-04-29 13:27 | 49.15867 | 8.36997 | 8670 ft | 183 kts | 322° |
| 2026-04-29 13:27 | 49.16803 | 8.35702 | 8668 ft | 184 kts | 324° |
| 2026-04-29 13:27 | 49.17744 | 8.34389 | 8671 ft | 183 kts | 322° |
| 2026-04-29 13:27 | 49.18685 | 8.33078 | 8670 ft | 183 kts | 324° |
| 2026-04-29 13:28 | 49.19637 | 8.31775 | 8667 ft | 183 kts | 322° |
| 2026-04-29 13:28 | 49.20576 | 8.30469 | 8661 ft | 183 kts | 324° |
| 2026-04-29 13:28 | 49.21519 | 8.29160 | 8665 ft | 183 kts | 322° |
| 2026-04-29 13:28 | 49.22459 | 8.27847 | 8675 ft | 183 kts | 322° |
| 2026-04-29 13:29 | 49.23405 | 8.26551 | 8676 ft | 182 kts | 324° |
| 2026-04-29 13:29 | 49.24341 | 8.25255 | 8682 ft | 181 kts | 324° |
| 2026-04-29 13:29 | 49.25276 | 8.23956 | 8676 ft | 181 kts | 324° |
| 2026-04-29 13:29 | 49.26204 | 8.22661 | 8681 ft | 181 kts | 324° |
| 2026-04-29 13:30 | 49.27134 | 8.21361 | 8680 ft | 181 kts | 323° |
| 2026-04-29 13:30 | 49.28052 | 8.20091 | 8664 ft | 180 kts | 323° |
| 2026-04-29 13:30 | 49.28981 | 8.18806 | 8676 ft | 180 kts | 322° |
| 2026-04-29 13:30 | 49.29900 | 8.17508 | 8679 ft | 180 kts | 321° |
| 2026-04-29 13:31 | 49.30819 | 8.16211 | 8668 ft | 179 kts | 322° |
| 2026-04-29 13:31 | 49.31739 | 8.14928 | 8666 ft | 179 kts | 322° |
| 2026-04-29 13:31 | 49.32663 | 8.13647 | 8678 ft | 180 kts | 324° |
| 2026-04-29 13:31 | 49.33590 | 8.12353 | 8685 ft | 180 kts | 322° |
| 2026-04-29 13:32 | 49.34512 | 8.11047 | 8674 ft | 180 kts | 323° |
| 2026-04-29 13:32 | 49.35429 | 8.09751 | 8674 ft | 179 kts | 322° |
| 2026-04-29 13:32 | 49.36349 | 8.08461 | 8678 ft | 179 kts | 324° |
| 2026-04-29 13:32 | 49.37275 | 8.07174 | 8690 ft | 180 kts | 324° |
| 2026-04-29 13:33 | 49.38200 | 8.05861 | 8666 ft | 180 kts | 321° |
| 2026-04-29 13:33 | 49.39116 | 8.04560 | 8672 ft | 179 kts | 324° |
| 2026-04-29 13:33 | 49.40047 | 8.03283 | 8664 ft | 180 kts | 326° |
| 2026-04-29 13:33 | 49.40980 | 8.01996 | 8664 ft | 180 kts | 322° |
| 2026-04-29 13:34 | 49.41899 | 8.00697 | 8653 ft | 180 kts | 322° |
| 2026-04-29 13:34 | 49.42818 | 7.99399 | 8677 ft | 180 kts | 324° |
| 2026-04-29 13:34 | 49.43743 | 7.98099 | 8676 ft | 181 kts | 325° |
| 2026-04-29 13:34 | 49.44667 | 7.96789 | 8675 ft | 181 kts | 322° |
| 2026-04-29 13:35 | 49.45579 | 7.95495 | 8678 ft | 181 kts | 322° |
| 2026-04-29 13:35 | 49.46513 | 7.94187 | 8689 ft | 182 kts | 326° |
| 2026-04-29 13:35 | 49.47453 | 7.92873 | 8682 ft | 183 kts | 325° |
| 2026-04-29 13:35 | 49.48387 | 7.91548 | 8674 ft | 182 kts | 324° |
| 2026-04-29 13:36 | 49.49316 | 7.90228 | 8684 ft | 182 kts | 321° |
| 2026-04-29 13:36 | 49.50243 | 7.88912 | 8690 ft | 181 kts | 326° |
| 2026-04-29 13:36 | 49.51186 | 7.87615 | 8697 ft | 182 kts | 323° |
| 2026-04-29 13:36 | 49.52113 | 7.86266 | 8699 ft | 184 kts | 323° |
| 2026-04-29 13:37 | 49.53047 | 7.84930 | 8684 ft | 183 kts | 323° |
| 2026-04-29 13:37 | 49.53986 | 7.83605 | 8690 ft | 183 kts | 322° |
| 2026-04-29 13:37 | 49.54931 | 7.82284 | 8698 ft | 184 kts | 325° |
| 2026-04-29 13:37 | 49.55884 | 7.80965 | 8686 ft | 184 kts | 322° |
| 2026-04-29 13:38 | 49.56817 | 7.79622 | 8683 ft | 183 kts | 324° |
| 2026-04-29 13:38 | 49.57756 | 7.78288 | 8682 ft | 183 kts | 324° |
| 2026-04-29 13:38 | 49.58687 | 7.76950 | 8681 ft | 183 kts | 325° |
| 2026-04-29 13:38 | 49.59626 | 7.75614 | 8697 ft | 185 kts | 325° |
| 2026-04-29 13:39 | 49.60569 | 7.74270 | 8685 ft | 184 kts | 324° |
| 2026-04-29 13:39 | 49.61506 | 7.72937 | 8679 ft | 183 kts | 323° |
| 2026-04-29 13:39 | 49.62441 | 7.71606 | 8683 ft | 183 kts | 323° |
| 2026-04-29 13:39 | 49.63377 | 7.70279 | 8676 ft | 182 kts | 322° |
| 2026-04-29 13:40 | 49.64309 | 7.68962 | 8690 ft | 182 kts | 322° |
| 2026-04-29 13:40 | 49.65240 | 7.67634 | 8675 ft | 182 kts | 324° |
| 2026-04-29 13:40 | 49.66167 | 7.66305 | 8687 ft | 183 kts | 321° |
| 2026-04-29 13:40 | 49.67106 | 7.64976 | 8673 ft | 183 kts | 324° |
| 2026-04-29 13:41 | 49.68041 | 7.63643 | 8675 ft | 182 kts | 322° |
| 2026-04-29 13:41 | 49.68971 | 7.62324 | 8691 ft | 183 kts | 325° |
| 2026-04-29 13:41 | 49.69904 | 7.61003 | 8700 ft | 184 kts | 321° |
| 2026-04-29 13:41 | 49.70839 | 7.59650 | 8688 ft | 184 kts | 324° |
| 2026-04-29 13:42 | 49.71782 | 7.58314 | 8676 ft | 184 kts | 324° |
| 2026-04-29 13:42 | 49.72711 | 7.56970 | 8677 ft | 182 kts | 321° |
| 2026-04-29 13:42 | 49.73638 | 7.55634 | 8695 ft | 183 kts | 323° |
| 2026-04-29 13:42 | 49.74568 | 7.54280 | 8705 ft | 184 kts | 323° |
| 2026-04-29 13:43 | 49.75510 | 7.52936 | 8713 ft | 185 kts | 322° |
| 2026-04-29 13:43 | 49.76461 | 7.51599 | 8695 ft | 184 kts | 322° |
| 2026-04-29 13:43 | 49.77399 | 7.50249 | 8702 ft | 184 kts | 324° |
| 2026-04-29 13:43 | 49.78336 | 7.48886 | 8706 ft | 185 kts | 324° |
| 2026-04-29 13:44 | 49.79277 | 7.47521 | 8695 ft | 185 kts | 321° |
| 2026-04-29 13:44 | 49.80209 | 7.46165 | 8689 ft | 184 kts | 322° |
| 2026-04-29 13:44 | 49.81138 | 7.44840 | 8689 ft | 184 kts | 324° |
| 2026-04-29 13:44 | 49.82083 | 7.43494 | 8689 ft | 184 kts | 324° |
| 2026-04-29 13:45 | 49.83024 | 7.42142 | 8709 ft | 185 kts | 322° |
| 2026-04-29 13:45 | 49.83969 | 7.40779 | 8703 ft | 185 kts | 321° |
| 2026-04-29 13:45 | 49.84912 | 7.39417 | 8705 ft | 185 kts | 324° |
| 2026-04-29 13:45 | 49.85866 | 7.38068 | 8703 ft | 185 kts | 322° |
| 2026-04-29 13:46 | 49.86807 | 7.36709 | 8700 ft | 185 kts | 322° |
| 2026-04-29 13:46 | 49.87753 | 7.35344 | 8714 ft | 186 kts | 322° |
| 2026-04-29 13:46 | 49.88696 | 7.33974 | 8696 ft | 185 kts | 321° |
| 2026-04-29 13:46 | 49.89639 | 7.32618 | 8702 ft | 185 kts | 324° |
| 2026-04-29 13:47 | 49.90583 | 7.31249 | 8707 ft | 186 kts | 321° |
| 2026-04-29 13:47 | 49.91513 | 7.29858 | 8698 ft | 185 kts | 321° |
| 2026-04-29 13:47 | 49.92447 | 7.28489 | 8712 ft | 184 kts | 322° |
| 2026-04-29 13:47 | 49.93379 | 7.27157 | 8725 ft | 184 kts | 326° |
| 2026-04-29 13:48 | 49.94456 | 7.26154 | 8720 ft | 174 kts | 348° |
| 2026-04-29 13:48 | 49.95614 | 7.25900 | 8725 ft | 170 kts | 4° |
| 2026-04-29 13:48 | 49.96800 | 7.25769 | 8727 ft | 172 kts | 0° |
| 2026-04-29 13:48 | 49.97993 | 7.25619 | 8723 ft | 172 kts | 1° |
| 2026-04-29 13:49 | 49.99191 | 7.25481 | 8724 ft | 172 kts | 2° |
| 2026-04-29 13:49 | 50.00383 | 7.25348 | 8705 ft | 171 kts | 3° |
| 2026-04-29 13:49 | 50.01569 | 7.25211 | 8716 ft | 171 kts | 2° |
| 2026-04-29 13:49 | 50.02756 | 7.25065 | 8726 ft | 171 kts | 2° |
| 2026-04-29 13:50 | 50.03948 | 7.24927 | 8727 ft | 172 kts | 1° |
| 2026-04-29 13:50 | 50.05143 | 7.24790 | 8724 ft | 172 kts | 1° |
| 2026-04-29 13:50 | 50.06340 | 7.24636 | 8731 ft | 173 kts | 2° |
| 2026-04-29 13:50 | 50.07537 | 7.24497 | 8730 ft | 173 kts | 2° |
| 2026-04-29 13:51 | 50.08739 | 7.24360 | 8729 ft | 173 kts | 1° |
| 2026-04-29 13:51 | 50.09938 | 7.24227 | 8720 ft | 173 kts | 2° |
| 2026-04-29 13:51 | 50.11134 | 7.24093 | 8706 ft | 171 kts | 2° |
| 2026-04-29 13:51 | 50.12296 | 7.23950 | 8585 ft | 171 kts | 3° |
| 2026-04-29 13:52 | 50.13500 | 7.23806 | 8447 ft | 175 kts | 3° |
| 2026-04-29 13:52 | 50.14727 | 7.23677 | 8304 ft | 177 kts | 2° |
| 2026-04-29 13:52 | 50.15961 | 7.23547 | 8182 ft | 179 kts | 1° |
| 2026-04-29 13:52 | 50.17213 | 7.23402 | 8074 ft | 180 kts | 2° |
| 2026-04-29 13:53 | 50.18467 | 7.23251 | 7960 ft | 181 kts | 1° |
| 2026-04-29 13:53 | 50.19723 | 7.23093 | 7848 ft | 181 kts | 2° |
| 2026-04-29 13:53 | 50.20976 | 7.22951 | 7720 ft | 178 kts | 2° |
| 2026-04-29 13:53 | 50.22194 | 7.22817 | 7622 ft | 174 kts | 2° |
| 2026-04-29 13:54 | 50.23391 | 7.22679 | 7507 ft | 172 kts | 2° |
| 2026-04-29 13:54 | 50.24580 | 7.22543 | 7395 ft | 171 kts | 3° |
| 2026-04-29 13:54 | 50.25762 | 7.22403 | 7276 ft | 170 kts | 3° |
| 2026-04-29 13:54 | 50.26936 | 7.22266 | 7149 ft | 169 kts | 2° |
| 2026-04-29 13:55 | 50.28093 | 7.22135 | 7034 ft | 168 kts | 3° |
| 2026-04-29 13:55 | 50.29258 | 7.21999 | 6910 ft | 168 kts | 2° |
| 2026-04-29 13:55 | 50.30420 | 7.21865 | 6794 ft | 167 kts | 3° |
| 2026-04-29 13:55 | 50.31581 | 7.21728 | 6675 ft | 167 kts | 3° |
| 2026-04-29 13:56 | 50.32741 | 7.21591 | 6534 ft | 167 kts | 3° |
| 2026-04-29 13:56 | 50.33898 | 7.21457 | 6399 ft | 167 kts | 4° |
| 2026-04-29 13:56 | 50.35051 | 7.21321 | 6261 ft | 166 kts | 4° |
| 2026-04-29 13:56 | 50.36213 | 7.21185 | 6167 ft | 168 kts | 3° |
| 2026-04-29 13:57 | 50.36984 | 7.21097 | 6105 ft | 168 kts | 3° |
| 2026-04-29 13:57 | 50.38156 | 7.20958 | 6018 ft | 169 kts | 4° |
| 2026-04-29 13:57 | 50.39328 | 7.20839 | 5894 ft | 169 kts | 3° |
| 2026-04-29 13:57 | 50.40495 | 7.20694 | 5760 ft | 168 kts | 3° |
| 2026-04-29 13:58 | 50.41661 | 7.20549 | 5630 ft | 168 kts | 2° |
| 2026-04-29 13:58 | 50.42822 | 7.20413 | 5488 ft | 167 kts | 2° |
| 2026-04-29 13:58 | 50.43989 | 7.20276 | 5357 ft | 167 kts | 2° |
| 2026-04-29 13:58 | 50.45147 | 7.20148 | 5205 ft | 167 kts | 2° |
| 2026-04-29 13:59 | 50.46308 | 7.20004 | 5095 ft | 169 kts | 2° |
| 2026-04-29 13:59 | 50.47484 | 7.19870 | 4937 ft | 169 kts | 2° |
| 2026-04-29 13:59 | 50.48656 | 7.19739 | 4775 ft | 169 kts | 1° |
| 2026-04-29 13:59 | 50.49825 | 7.19599 | 4602 ft | 168 kts | 2° |
| 2026-04-29 14:00 | 50.50991 | 7.19461 | 4435 ft | 168 kts | 2° |
| 2026-04-29 14:00 | 50.52151 | 7.19320 | 4271 ft | 167 kts | 2° |
| 2026-04-29 14:00 | 50.53292 | 7.19183 | 4134 ft | 166 kts | 1° |
| 2026-04-29 14:00 | 50.54447 | 7.19045 | 4018 ft | 166 kts | 2° |
| 2026-04-29 14:01 | 50.55595 | 7.18910 | 3889 ft | 162 kts | 1° |
| 2026-04-29 14:01 | 50.56700 | 7.18776 | 3741 ft | 158 kts | 4° |
| 2026-04-29 14:01 | 50.57786 | 7.18656 | 3596 ft | 155 kts | 4° |
| 2026-04-29 14:01 | 50.58865 | 7.18528 | 3446 ft | 155 kts | 3° |
| 2026-04-29 14:02 | 50.59939 | 7.18404 | 3296 ft | 154 kts | 2° |
| 2026-04-29 14:02 | 50.60997 | 7.18271 | 3153 ft | 152 kts | 2° |
| 2026-04-29 14:02 | 50.62044 | 7.18099 | 3001 ft | 152 kts | 355° |
| 2026-04-29 14:02 | 50.63072 | 7.17706 | 2846 ft | 152 kts | 351° |
| 2026-04-29 14:03 | 50.64080 | 7.17260 | 2669 ft | 150 kts | 351° |
| 2026-04-29 14:03 | 50.65072 | 7.16746 | 2556 ft | 150 kts | 347° |
| 2026-04-29 14:03 | 50.66051 | 7.16183 | 2404 ft | 149 kts | 347° |
| 2026-04-29 14:03 | 50.67016 | 7.15602 | 2243 ft | 148 kts | 346° |
| 2026-04-29 14:04 | 50.67978 | 7.15017 | 2115 ft | 148 kts | 347° |
| 2026-04-29 14:04 | 50.68938 | 7.14441 | 2009 ft | 147 kts | 347° |
| 2026-04-29 14:04 | 50.69901 | 7.13909 | 1909 ft | 146 kts | 348° |
| 2026-04-29 14:04 | 50.70837 | 7.13393 | 1800 ft | 143 kts | 348° |
| 2026-04-29 14:05 | 50.71762 | 7.12850 | 1687 ft | 141 kts | 348° |
| 2026-04-29 14:05 | 50.72665 | 7.12299 | 1552 ft | 137 kts | 346° |
| 2026-04-29 14:05 | 50.73533 | 7.12330 | 1396 ft | 121 kts | 36° |
| 2026-04-29 14:05 | 50.74173 | 7.13128 | 1251 ft | 114 kts | 47° |
| 2026-04-29 14:06 | 50.74734 | 7.13973 | 1202 ft | 111 kts | 49° |
| 2026-04-29 14:06 | 50.74928 | 7.15099 | 1212 ft | 112 kts | 94° |
| 2026-04-29 14:06 | 50.74721 | 7.16243 | 1206 ft | 103 kts | 107° |
| 2026-04-29 14:06 | 50.74483 | 7.17261 | 1185 ft | 92 kts | 86° |
| 2026-04-29 14:07 | 50.74634 | 7.18177 | 1115 ft | 82 kts | 71° |
| 2026-04-29 14:07 | 50.74907 | 7.18946 | 1096 ft | 82 kts | 56° |
| 2026-04-29 14:07 | 50.75312 | 7.19594 | 1045 ft | 86 kts | 42° |
| 2026-04-29 14:07 | 50.75822 | 7.20014 | 1082 ft | 86 kts | 15° |
| 2026-04-29 14:08 | 50.76385 | 7.19619 | 884 ft | 107 kts | 312° |
| 2026-04-29 14:08 | 50.76491 | 7.18449 | 525 ft | 101 kts | 272° |
| 2026-04-29 14:08 | 50.76611 | 7.17513 | 339 ft | 84 kts | 294° |
| 2026-04-29 14:08 | 50.76591 | 7.17187 | 212 ft | 1 kts | 278° |
| 2026-04-29 14:09 | 50.76590 | 7.17185 | 212 ft | 0 kts | 344° |
| 2026-04-29 14:09 | 50.76591 | 7.17186 | 209 ft | 1 kts | 350° |
| 2026-04-29 14:09 | 50.76575 | 7.17200 | 209 ft | 0 kts | 333° |
| 2026-04-29 14:09 | 50.76571 | 7.17155 | 208 ft | 33 kts | 295° |
| 2026-04-29 14:10 | 50.76850 | 7.16714 | 332 ft | 80 kts | 298° |
| 2026-04-29 14:10 | 50.76999 | 7.15692 | 613 ft | 112 kts | 283° |
| 2026-04-29 14:10 | 50.77098 | 7.14369 | 1064 ft | 134 kts | 278° |
| 2026-04-29 14:10 | 50.76924 | 7.12894 | 1250 ft | 145 kts | 227° |
| 2026-04-29 14:11 | 50.76086 | 7.12596 | 1223 ft | 127 kts | 143° |
| 2026-04-29 14:11 | 50.75721 | 7.13748 | 1194 ft | 116 kts | 93° |
| 2026-04-29 14:11 | 50.75484 | 7.14958 | 1149 ft | 116 kts | 114° |
| 2026-04-29 14:11 | 50.75135 | 7.16074 | 1162 ft | 113 kts | 111° |
| 2026-04-29 14:12 | 50.74778 | 7.17100 | 1107 ft | 95 kts | 107° |
| 2026-04-29 14:12 | 50.74798 | 7.18068 | 1003 ft | 96 kts | 62° |
| 2026-04-29 14:12 | 50.75244 | 7.18851 | 961 ft | 98 kts | 43° |
| 2026-04-29 14:12 | 50.75879 | 7.19229 | 923 ft | 101 kts | 10° |
| 2026-04-29 14:13 | 50.76451 | 7.18555 | 589 ft | 121 kts | 291° |
| 2026-04-29 14:13 | 50.76661 | 7.17416 | 332 ft | 99 kts | 292° |
| 2026-04-29 14:13 | 50.76855 | 7.16480 | 202 ft | 75 kts | 298° |
| 2026-04-29 14:13 | 50.76963 | 7.15995 | 212 ft | 27 kts | 288° |
| 2026-04-29 14:14 | 50.76991 | 7.15762 | 206 ft | 16 kts | 227° |
| 2026-04-29 14:14 | 50.76935 | 7.15727 | 209 ft | 7 kts | 168° |
| 2026-04-29 14:14 | 50.76908 | 7.15815 | 206 ft | 13 kts | 104° |
| 2026-04-29 14:14 | 50.76872 | 7.15985 | 209 ft | 19 kts | 107° |
| 2026-04-29 14:15 | 50.76819 | 7.16209 | 206 ft | 19 kts | 109° |
| 2026-04-29 14:15 | 50.76773 | 7.16430 | 206 ft | 19 kts | 113° |
| 2026-04-29 14:15 | 50.76739 | 7.16561 | 205 ft | 7 kts | 138° |
| 2026-04-29 14:15 | 50.76693 | 7.16606 | 206 ft | 3 kts | 188° |
| 2026-04-29 14:16 | 50.76692 | 7.16606 | 206 ft | 0 kts | 191° |
| 2026-04-29 14:17 | 50.76693 | 7.16606 | 206 ft | 0 kts | 191° |